createdAt,value
2019-02-08T00:00:36.469Z,97
2019-02-08T00:01:39.312Z,97
2019-02-08T00:02:42.153Z,97
2019-02-08T00:03:44.303Z,97
2019-02-08T00:04:48.129Z,97
2019-02-08T00:05:52.053Z,97
2019-02-08T00:06:54.897Z,97
2019-02-08T00:07:57.051Z,97
2019-02-08T00:08:59.811Z,98
2019-02-08T00:10:03.530Z,97
2019-02-08T00:11:06.259Z,98
2019-02-08T00:12:08.424Z,98
2019-02-08T00:13:10.926Z,97
2019-02-08T00:14:13.748Z,97
2019-02-08T00:15:16.576Z,97
2019-02-08T00:16:19.841Z,97
2019-02-08T00:17:24.474Z,98
2019-02-08T00:18:27.719Z,98
2019-02-08T00:19:29.861Z,98
2019-02-08T00:20:32.315Z,98
2019-02-08T00:21:34.811Z,98
2019-02-08T00:22:36.966Z,98
2019-02-08T00:23:40.087Z,98
2019-02-08T00:24:42.944Z,98
2019-02-08T00:25:45.967Z,98
2019-02-08T00:26:48.691Z,98
2019-02-08T00:27:52.116Z,98
2019-02-08T00:28:54.654Z,98
2019-02-08T00:29:59.151Z,98
2019-02-08T00:31:03.754Z,99
2019-02-08T00:32:08.276Z,99
2019-02-08T00:33:11.562Z,99
2019-02-08T00:34:13.686Z,99
2019-02-08T00:35:15.836Z,99
2019-02-08T00:36:17.996Z,99
2019-02-08T00:37:20.129Z,99
2019-02-08T00:38:22.278Z,100
2019-02-08T00:39:24.815Z,100
2019-02-08T00:40:29.768Z,100
2019-02-08T00:41:32.750Z,100
2019-02-08T00:42:34.948Z,100
2019-02-08T00:43:37.081Z,100
2019-02-08T00:44:39.556Z,100
2019-02-08T00:45:41.682Z,100
2019-02-08T00:46:43.855Z,100
2019-02-08T00:47:46.370Z,100
2019-02-08T00:48:48.914Z,100
2019-02-08T00:49:51.065Z,100
2019-02-08T00:50:53.841Z,100
2019-02-08T00:51:57.148Z,100
2019-02-08T00:52:59.298Z,100
2019-02-08T00:54:01.837Z,100
2019-02-08T00:55:03.953Z,100
2019-02-08T00:56:06.526Z,100
2019-02-08T00:57:08.666Z,100
2019-02-08T00:58:10.802Z,100
2019-02-08T00:59:12.964Z,100
2019-02-08T01:00:15.099Z,100
2019-02-08T01:01:17.831Z,100
2019-02-08T01:02:20.469Z,100
2019-02-08T01:03:22.621Z,100
2019-02-08T01:04:25.042Z,100
2019-02-08T01:05:27.196Z,100
2019-02-08T01:06:29.342Z,100
2019-02-08T01:07:31.484Z,100
2019-02-08T01:08:33.628Z,100
2019-02-08T01:09:35.772Z,100
2019-02-08T01:10:37.917Z,100
2019-02-08T01:11:40.853Z,100
2019-02-08T01:12:44.164Z,100
2019-02-08T01:13:46.689Z,100
2019-02-08T01:14:48.845Z,100
2019-02-08T01:15:51.256Z,100
2019-02-08T01:16:53.407Z,100
2019-02-08T01:17:55.828Z,100
2019-02-08T01:18:57.975Z,100
2019-02-08T01:20:00.541Z,100
2019-02-08T01:21:02.966Z,100
2019-02-08T01:22:05.754Z,100
2019-02-08T01:23:08.528Z,100
2019-02-08T01:24:11.032Z,100
2019-02-08T01:25:13.161Z,100
2019-02-08T01:26:15.298Z,100
2019-02-08T01:27:17.419Z,100
2019-02-08T01:28:19.613Z,100
2019-02-08T01:29:21.749Z,100
2019-02-08T01:30:24.162Z,100
2019-02-08T01:31:26.300Z,100
2019-02-08T01:32:28.712Z,100
2019-02-08T01:33:30.814Z,100
2019-02-08T01:34:32.946Z,100
2019-02-08T01:35:35.456Z,100
2019-02-08T01:36:37.565Z,100
2019-02-08T01:37:39.693Z,100
2019-02-08T01:38:42.113Z,100
2019-02-08T01:39:44.218Z,100
2019-02-08T01:40:46.330Z,100
2019-02-08T01:41:48.454Z,100
2019-02-08T01:42:50.595Z,100
2019-02-08T01:43:52.729Z,100
2019-02-08T01:44:54.852Z,100
2019-02-08T01:45:57.674Z,100
2019-02-08T01:46:59.788Z,100
2019-02-08T01:48:03.426Z,100
2019-02-08T01:49:05.806Z,100
2019-02-08T01:50:07.924Z,100
2019-02-08T01:51:10.042Z,100
2019-02-08T01:52:12.161Z,100
2019-02-08T01:53:14.640Z,100
2019-02-08T01:54:16.759Z,100
2019-02-08T01:55:18.882Z,100
2019-02-08T01:56:21.280Z,100
2019-02-08T01:57:23.430Z,100
2019-02-08T01:58:25.534Z,100
2019-02-08T01:59:27.676Z,100
2019-02-08T02:00:29.796Z,100
2019-02-08T02:01:32.200Z,100
2019-02-08T02:02:34.305Z,100
2019-02-08T02:03:37.107Z,100
2019-02-08T02:04:39.505Z,100
2019-02-08T02:05:41.613Z,100
2019-02-08T02:06:43.729Z,100
2019-02-08T02:07:46.506Z,100
2019-02-08T02:08:48.613Z,100
2019-02-08T02:09:51.019Z,100
2019-02-08T02:10:53.139Z,100
2019-02-08T02:11:55.241Z,100
2019-02-08T02:12:57.682Z,100
2019-02-08T02:13:59.798Z,100
2019-02-08T02:15:02.295Z,100
2019-02-08T02:16:05.110Z,100
2019-02-08T02:17:07.244Z,100
2019-02-08T02:18:09.344Z,100
2019-02-08T02:19:11.742Z,100
2019-02-08T02:20:13.854Z,100
2019-02-08T02:21:15.962Z,100
2019-02-08T02:22:18.084Z,100
2019-02-08T02:23:20.216Z,100
2019-02-08T02:24:22.342Z,100
2019-02-08T02:25:24.439Z,100
2019-02-08T02:26:26.570Z,100
2019-02-08T02:27:28.681Z,100
2019-02-08T02:28:30.797Z,100
2019-02-08T02:29:32.919Z,100
2019-02-08T02:30:35.419Z,100
2019-02-08T02:31:37.851Z,100
2019-02-08T02:32:39.967Z,100
2019-02-08T02:33:42.092Z,100
2019-02-08T02:34:44.497Z,100
2019-02-08T02:35:47.022Z,100
2019-02-08T02:36:49.148Z,100
2019-02-08T02:37:51.278Z,100
2019-02-08T02:38:53.796Z,100
2019-02-08T02:39:55.915Z,100
2019-02-08T02:40:58.327Z,100
2019-02-08T02:42:00.737Z,100
2019-02-08T02:43:03.165Z,100
2019-02-08T02:44:05.369Z,100
2019-02-08T02:45:07.482Z,100
2019-02-08T02:46:09.606Z,100
2019-02-08T02:47:11.724Z,100
2019-02-08T02:48:14.235Z,100
2019-02-08T02:49:16.660Z,100
2019-02-08T02:50:18.780Z,100
2019-02-08T02:51:20.881Z,100
2019-02-08T02:52:23.576Z,100
2019-02-08T02:53:26.370Z,100
2019-02-08T02:54:28.512Z,100
2019-02-08T02:55:30.643Z,100
2019-02-08T02:56:32.760Z,100
2019-02-08T02:57:34.895Z,100
2019-02-08T02:58:37.013Z,100
2019-02-08T02:59:39.571Z,100
2019-02-08T03:00:42.377Z,100
2019-02-08T03:01:44.797Z,100
2019-02-08T03:02:47.221Z,100
2019-02-08T03:03:49.363Z,100
2019-02-08T03:04:51.514Z,100
2019-02-08T03:05:53.987Z,100
2019-02-08T03:06:56.428Z,100
2019-02-08T03:07:58.842Z,100
2019-02-08T03:09:00.985Z,100
2019-02-08T03:10:03.147Z,100
2019-02-08T03:11:05.263Z,100
2019-02-08T03:12:07.459Z,100
2019-02-08T03:13:10.149Z,100
2019-02-08T03:14:12.861Z,100
2019-02-08T03:15:15.246Z,100
2019-02-08T03:16:17.359Z,100
2019-02-08T03:17:19.520Z,100
2019-02-08T03:18:21.934Z,100
2019-02-08T03:19:24.066Z,100
2019-02-08T03:20:26.177Z,100
2019-02-08T03:21:28.585Z,100
2019-02-08T03:22:30.701Z,100
2019-02-08T03:23:33.112Z,100
2019-02-08T03:24:35.777Z,100
2019-02-08T03:25:38.190Z,100
2019-02-08T03:26:41.009Z,100
2019-02-08T03:27:43.409Z,100
2019-02-08T03:28:45.545Z,100
2019-02-08T03:29:48.007Z,100
2019-02-08T03:30:50.870Z,100
2019-02-08T03:31:54.259Z,100
2019-02-08T03:32:58.086Z,100
2019-02-08T03:34:00.506Z,100
2019-02-08T03:35:03.208Z,100
2019-02-08T03:36:05.341Z,100
2019-02-08T03:37:07.444Z,100
2019-02-08T03:38:09.576Z,100
2019-02-08T03:39:12.028Z,100
2019-02-08T03:40:14.441Z,100
2019-02-08T03:41:16.537Z,100
2019-02-08T03:42:18.656Z,100
2019-02-08T03:43:20.819Z,100
2019-02-08T03:44:23.240Z,100
2019-02-08T03:45:25.378Z,100
2019-02-08T03:46:27.794Z,100
2019-02-08T03:47:29.910Z,100
2019-02-08T03:48:32.028Z,100
2019-02-08T03:49:34.170Z,100
2019-02-08T03:50:36.272Z,100
2019-02-08T03:51:38.409Z,100
2019-02-08T03:52:40.819Z,100
2019-02-08T03:53:42.966Z,100
2019-02-08T03:54:45.391Z,100
2019-02-08T03:55:48.105Z,100
2019-02-08T03:56:58.362Z,100
2019-02-08T03:58:00.462Z,100
2019-02-08T03:59:03.145Z,100
2019-02-08T04:00:05.259Z,100
2019-02-08T04:01:07.368Z,100
2019-02-08T04:02:09.502Z,100
2019-02-08T04:03:11.610Z,100
2019-02-08T04:04:14.143Z,100
2019-02-08T04:05:16.598Z,100
2019-02-08T04:06:18.726Z,100
2019-02-08T04:07:20.842Z,100
2019-02-08T04:08:22.970Z,100
2019-02-08T04:09:25.112Z,100
2019-02-08T04:10:27.210Z,100
2019-02-08T04:11:29.337Z,100
2019-02-08T04:12:31.466Z,100
2019-02-08T04:13:33.868Z,100
2019-02-08T04:14:36.547Z,100
2019-02-08T04:15:38.766Z,100
2019-02-08T04:16:40.892Z,100
2019-02-08T04:17:43.386Z,100
2019-02-08T04:18:45.514Z,100
2019-02-08T04:19:47.624Z,100
2019-02-08T04:20:50.021Z,100
2019-02-08T04:21:52.189Z,100
2019-02-08T04:22:54.298Z,100
2019-02-08T04:23:56.708Z,100
2019-02-08T04:24:58.828Z,100
2019-02-08T04:26:00.926Z,100
2019-02-08T04:27:03.037Z,100
2019-02-08T04:28:05.163Z,100
2019-02-08T04:29:07.282Z,100
2019-02-08T04:30:09.381Z,100
2019-02-08T04:31:11.809Z,100
2019-02-08T04:32:13.973Z,100
2019-02-08T04:33:16.363Z,100
2019-02-08T04:34:18.827Z,100
2019-02-08T04:35:20.922Z,100
2019-02-08T04:36:23.451Z,100
2019-02-08T04:37:25.566Z,100
2019-02-08T04:38:27.685Z,100
2019-02-08T04:39:30.105Z,100
2019-02-08T04:40:32.964Z,100
2019-02-08T04:41:35.076Z,100
2019-02-08T04:42:37.459Z,100
2019-02-08T04:43:39.581Z,100
2019-02-08T04:44:42.257Z,100
2019-02-08T04:45:44.380Z,100
2019-02-08T04:46:46.501Z,100
2019-02-08T04:47:48.921Z,100
2019-02-08T04:48:51.029Z,100
2019-02-08T04:49:53.823Z,100
2019-02-08T04:50:55.939Z,100
2019-02-08T04:51:58.037Z,100
2019-02-08T04:53:00.894Z,100
2019-02-08T04:54:03.415Z,100
2019-02-08T04:55:05.540Z,100
2019-02-08T04:56:07.670Z,100
2019-02-08T04:57:09.814Z,100
2019-02-08T04:58:11.915Z,100
2019-02-08T04:59:14.044Z,100
2019-02-08T05:00:16.156Z,100
2019-02-08T05:01:18.272Z,100
2019-02-08T05:02:20.382Z,100
2019-02-08T05:03:22.526Z,100
2019-02-08T05:04:24.917Z,100
2019-02-08T05:05:27.048Z,100
2019-02-08T05:06:29.451Z,100
2019-02-08T05:07:31.871Z,100
2019-02-08T05:08:34.284Z,100
2019-02-08T05:09:36.802Z,100
2019-02-08T05:10:39.680Z,100
2019-02-08T05:11:42.089Z,100
2019-02-08T05:12:44.191Z,100
2019-02-08T05:13:46.318Z,100
2019-02-08T05:14:48.443Z,100
2019-02-08T05:15:50.543Z,100
2019-02-08T05:16:52.671Z,100
2019-02-08T05:17:54.783Z,100
2019-02-08T05:18:57.184Z,100
2019-02-08T05:19:59.692Z,100
2019-02-08T05:21:01.960Z,100
2019-02-08T05:22:04.069Z,100
2019-02-08T05:23:06.211Z,100
2019-02-08T05:24:08.332Z,100
2019-02-08T05:25:10.506Z,100
2019-02-08T05:26:12.916Z,100
2019-02-08T05:27:15.023Z,100
2019-02-08T05:28:17.120Z,100
2019-02-08T05:29:19.232Z,100
2019-02-08T05:30:21.378Z,100
2019-02-08T05:31:23.873Z,100
2019-02-08T05:32:26.016Z,100
2019-02-08T05:33:28.561Z,100
2019-02-08T05:34:30.659Z,100
2019-02-08T05:35:32.805Z,100
2019-02-08T05:36:34.930Z,100
2019-02-08T05:37:37.319Z,100
2019-02-08T05:38:39.452Z,100
2019-02-08T05:39:41.564Z,100
2019-02-08T05:40:44.014Z,100
2019-02-08T05:41:46.159Z,100
2019-02-08T05:42:49.042Z,100
2019-02-08T05:43:51.463Z,100
2019-02-08T05:44:53.574Z,100
2019-02-08T05:45:55.687Z,100
2019-02-08T05:46:57.810Z,100
2019-02-08T05:47:59.932Z,100
2019-02-08T05:49:02.047Z,100
2019-02-08T05:50:04.178Z,100
2019-02-08T05:51:06.566Z,100
2019-02-08T05:52:09.245Z,100
2019-02-08T05:53:11.354Z,100
2019-02-08T05:54:13.505Z,100
2019-02-08T05:55:15.618Z,100
2019-02-08T05:56:17.759Z,100
2019-02-08T05:57:19.875Z,100
2019-02-08T05:58:22.254Z,100
2019-02-08T05:59:24.763Z,100
2019-02-08T06:00:26.903Z,100
2019-02-08T06:01:29.021Z,100
2019-02-08T06:02:31.140Z,100
2019-02-08T06:03:33.652Z,100
2019-02-08T06:04:36.035Z,100
2019-02-08T06:05:38.175Z,100
2019-02-08T06:06:40.310Z,100
2019-02-08T06:07:42.429Z,100
2019-02-08T06:08:44.557Z,100
2019-02-08T06:09:46.699Z,100
2019-02-08T06:10:48.799Z,100
2019-02-08T06:11:50.974Z,100
2019-02-08T06:12:53.380Z,100
2019-02-08T06:13:55.780Z,100
2019-02-08T06:14:57.985Z,100
2019-02-08T06:16:00.508Z,100
2019-02-08T06:17:02.635Z,100
2019-02-08T06:18:04.793Z,100
2019-02-08T06:19:07.575Z,100
2019-02-08T06:20:09.681Z,100
2019-02-08T06:21:11.810Z,100
2019-02-08T06:22:14.328Z,100
2019-02-08T06:23:16.459Z,100
2019-02-08T06:24:18.867Z,100
2019-02-08T06:25:21.151Z,100
2019-02-08T06:26:23.947Z,100
2019-02-08T06:27:26.382Z,100
2019-02-08T06:28:28.498Z,100
2019-02-08T06:29:30.629Z,100
2019-02-08T06:30:33.158Z,100
2019-02-08T06:31:35.330Z,100
2019-02-08T06:32:37.734Z,100
2019-02-08T06:33:39.854Z,100
2019-02-08T06:34:42.339Z,100
2019-02-08T06:35:44.467Z,100
2019-02-08T06:36:46.880Z,100
2019-02-08T06:37:49.663Z,100
2019-02-08T06:38:52.061Z,100
2019-02-08T06:39:54.175Z,100
2019-02-08T06:40:56.277Z,100
2019-02-08T06:41:58.401Z,100
2019-02-08T06:43:00.851Z,100
2019-02-08T06:44:03.239Z,100
2019-02-08T06:45:05.683Z,100
2019-02-08T06:46:07.860Z,100
2019-02-08T06:47:10.742Z,100
2019-02-08T06:48:12.887Z,100
2019-02-08T06:49:14.996Z,100
2019-02-08T06:50:17.102Z,100
2019-02-08T06:51:19.241Z,100
2019-02-08T06:52:21.658Z,100
2019-02-08T06:53:23.758Z,100
2019-02-08T06:54:25.952Z,100
2019-02-08T06:55:28.085Z,100
2019-02-08T06:56:30.189Z,100
2019-02-08T06:57:32.319Z,100
2019-02-08T06:58:34.438Z,99
2019-02-08T06:59:36.569Z,99
2019-02-08T07:00:38.672Z,99
2019-02-08T07:01:40.799Z,99
2019-02-08T07:02:42.955Z,99
2019-02-08T07:03:45.058Z,99
2019-02-08T07:04:47.182Z,99
2019-02-08T07:05:49.288Z,99
2019-02-08T07:06:51.399Z,99
2019-02-08T07:07:53.802Z,99
2019-02-08T07:08:55.914Z,99
2019-02-08T07:09:58.021Z,98
2019-02-08T07:11:00.145Z,99
2019-02-08T07:12:02.254Z,99
2019-02-08T07:13:04.640Z,98
2019-02-08T07:14:06.761Z,98
2019-02-08T07:15:08.876Z,99
2019-02-08T07:16:11.260Z,98
2019-02-08T07:17:13.439Z,99
2019-02-08T07:18:15.546Z,98
2019-02-08T07:19:18.036Z,98
2019-02-08T07:20:20.156Z,98
2019-02-08T07:21:22.262Z,98
2019-02-08T07:22:24.374Z,98
2019-02-08T07:23:26.487Z,98
2019-02-08T07:24:28.626Z,98
2019-02-08T07:25:31.030Z,98
2019-02-08T07:26:33.153Z,98
2019-02-08T07:27:35.303Z,98
2019-02-08T07:28:37.428Z,98
2019-02-08T07:29:39.558Z,98
2019-02-08T07:30:41.662Z,98
2019-02-08T07:31:43.770Z,98
2019-02-08T07:32:45.882Z,98
2019-02-08T07:33:48.574Z,98
2019-02-08T07:34:50.675Z,98
2019-02-08T07:35:53.105Z,97
2019-02-08T07:36:55.622Z,97
2019-02-08T07:37:57.720Z,97
2019-02-08T07:38:59.842Z,98
2019-02-08T07:40:01.964Z,97
2019-02-08T07:41:04.398Z,97
2019-02-08T07:42:06.515Z,97
2019-02-08T07:43:09.888Z,97
2019-02-08T07:44:12.014Z,97
2019-02-08T07:45:14.113Z,97
2019-02-08T07:46:16.241Z,97
2019-02-08T07:47:18.380Z,96
2019-02-08T07:48:20.778Z,96
2019-02-08T07:49:23.270Z,96
2019-02-08T07:50:25.402Z,95
2019-02-08T07:51:27.514Z,95
2019-02-08T07:52:29.622Z,95
2019-02-08T07:53:31.752Z,95
2019-02-08T07:54:33.849Z,95
2019-02-08T07:55:35.972Z,95
2019-02-08T07:56:38.100Z,94
2019-02-08T07:57:40.223Z,94
2019-02-08T07:58:42.322Z,94
2019-02-08T07:59:44.443Z,93
2019-02-08T08:00:46.563Z,93
2019-02-08T08:01:49.000Z,93
2019-02-08T08:02:51.131Z,93
2019-02-08T08:04:00.929Z,93
2019-02-08T08:05:04.019Z,94
2019-02-08T08:06:06.126Z,93
2019-02-08T08:07:08.253Z,93
2019-02-08T08:08:10.357Z,93
2019-02-08T08:09:12.485Z,92
2019-02-08T08:10:14.605Z,92
2019-02-08T08:11:16.777Z,92
2019-02-08T08:12:19.181Z,92
2019-02-08T08:13:21.302Z,93
2019-02-08T08:14:23.405Z,92
2019-02-08T08:15:25.525Z,92
2019-02-08T08:16:27.655Z,92
2019-02-08T08:17:29.772Z,92
2019-02-08T08:18:32.182Z,92
2019-02-08T08:19:34.301Z,92
2019-02-08T08:20:36.710Z,92
2019-02-08T08:21:38.832Z,92
2019-02-08T08:22:41.232Z,92
2019-02-08T08:23:43.349Z,92
2019-02-08T08:24:45.469Z,92
2019-02-08T08:25:47.871Z,92
2019-02-08T08:26:49.984Z,92
2019-02-08T08:27:52.517Z,92
2019-02-08T08:28:54.629Z,91
2019-02-08T08:29:56.752Z,91
2019-02-08T08:30:58.863Z,91
2019-02-08T08:32:01.288Z,91
2019-02-08T08:33:03.389Z,90
2019-02-08T08:34:05.514Z,90
2019-02-08T08:35:07.645Z,89
2019-02-08T08:36:09.745Z,89
2019-02-08T08:37:11.879Z,88
2019-02-08T08:38:14.390Z,88
2019-02-08T08:39:17.287Z,90
2019-02-08T08:40:19.391Z,90
2019-02-08T08:41:21.800Z,90
2019-02-08T08:42:24.301Z,91
2019-02-08T08:43:26.411Z,90
2019-02-08T08:44:28.548Z,90
2019-02-08T08:45:31.049Z,90
2019-02-08T08:46:33.185Z,90
2019-02-08T08:47:35.314Z,90
2019-02-08T08:48:37.471Z,90
2019-02-08T08:49:39.909Z,90
2019-02-08T08:50:42.031Z,90
2019-02-08T08:51:44.136Z,90
2019-02-08T08:52:46.255Z,91
2019-02-08T08:53:48.381Z,90
2019-02-08T08:54:50.543Z,90
2019-02-08T08:55:52.668Z,90
2019-02-08T08:56:54.781Z,90
2019-02-08T08:57:56.895Z,90
2019-02-08T08:58:59.019Z,90
2019-02-08T09:00:01.171Z,91
2019-02-08T09:01:03.309Z,91
2019-02-08T09:02:05.805Z,91
2019-02-08T09:03:07.925Z,91
2019-02-08T09:04:10.031Z,91
2019-02-08T09:05:12.165Z,91
2019-02-08T09:06:14.272Z,92
2019-02-08T09:07:17.469Z,92
2019-02-08T09:08:20.163Z,91
2019-02-08T09:09:22.272Z,92
2019-02-08T09:10:24.412Z,92
2019-02-08T09:11:26.530Z,92
2019-02-08T09:12:28.651Z,92
2019-02-08T09:13:30.800Z,92
2019-02-08T09:14:32.926Z,92
2019-02-08T09:15:35.498Z,92
2019-02-08T09:16:37.908Z,93
2019-02-08T09:17:40.030Z,92
2019-02-08T09:18:42.131Z,93
2019-02-08T09:19:44.255Z,93
2019-02-08T09:20:46.383Z,92
2019-02-08T09:21:48.898Z,92
2019-02-08T09:22:51.049Z,93
2019-02-08T09:23:53.216Z,93
2019-02-08T09:24:55.618Z,93
2019-02-08T09:25:57.733Z,93
2019-02-08T09:27:00.167Z,93
2019-02-08T09:28:02.310Z,93
2019-02-08T09:29:04.422Z,93
2019-02-08T09:30:06.556Z,93
2019-02-08T09:31:09.065Z,93
2019-02-08T09:32:11.185Z,93
2019-02-08T09:33:13.317Z,93
2019-02-08T09:34:15.419Z,94
2019-02-08T09:35:17.546Z,94
2019-02-08T09:36:19.661Z,93
2019-02-08T09:37:22.239Z,93
2019-02-08T09:38:24.347Z,93
2019-02-08T09:39:26.477Z,93
2019-02-08T09:40:28.903Z,93
2019-02-08T09:41:31.007Z,93
2019-02-08T09:42:33.134Z,93
2019-02-08T09:43:35.277Z,93
2019-02-08T09:44:37.393Z,93
2019-02-08T09:45:39.500Z,93
2019-02-08T09:46:41.657Z,93
2019-02-08T09:47:43.774Z,93
2019-02-08T09:48:45.896Z,93
2019-02-08T09:49:48.016Z,93
2019-02-08T09:50:50.118Z,93
2019-02-08T09:51:52.242Z,93
2019-02-08T09:52:54.365Z,93
2019-02-08T09:53:56.473Z,93
2019-02-08T09:54:59.304Z,93
2019-02-08T09:56:01.756Z,93
2019-02-08T09:57:04.170Z,93
2019-02-08T09:58:06.320Z,94
2019-02-08T09:59:08.447Z,94
2019-02-08T10:00:10.549Z,94
2019-02-08T10:01:12.667Z,94
2019-02-08T10:02:14.809Z,94
2019-02-08T10:03:16.901Z,95
2019-02-08T10:04:19.036Z,96
2019-02-08T10:05:21.159Z,96
2019-02-08T10:06:23.285Z,96
2019-02-08T10:07:25.423Z,96
2019-02-08T10:08:27.541Z,97
2019-02-08T10:09:29.657Z,97
2019-02-08T10:10:31.751Z,97
2019-02-08T10:11:33.861Z,98
2019-02-08T10:12:35.989Z,97
2019-02-08T10:13:38.384Z,97
2019-02-08T10:14:41.262Z,97
2019-02-08T10:15:43.395Z,98
2019-02-08T10:16:45.498Z,99
2019-02-08T10:17:47.614Z,99
2019-02-08T10:18:49.737Z,99
2019-02-08T10:19:52.155Z,99
2019-02-08T10:20:55.081Z,99
2019-02-08T10:21:57.221Z,100
2019-02-08T10:22:59.745Z,100
2019-02-08T10:24:01.854Z,100
2019-02-08T10:25:04.545Z,100
2019-02-08T10:26:06.671Z,100
2019-02-08T10:27:08.780Z,100
2019-02-08T10:28:10.889Z,100
2019-02-08T10:29:13.014Z,100
2019-02-08T10:30:15.118Z,100
2019-02-08T10:31:17.846Z,99
2019-02-08T10:32:19.973Z,99
2019-02-08T10:33:22.371Z,98
2019-02-08T10:34:24.489Z,98
2019-02-08T10:35:26.666Z,98
2019-02-08T10:36:29.342Z,98
2019-02-08T10:37:31.458Z,97
2019-02-08T10:38:33.580Z,96
2019-02-08T10:39:35.689Z,96
2019-02-08T10:40:37.827Z,96
2019-02-08T10:41:39.936Z,96
2019-02-08T10:42:42.064Z,96
2019-02-08T10:43:44.167Z,95
2019-02-08T10:44:46.310Z,95
2019-02-08T10:45:48.694Z,94
2019-02-08T10:46:51.095Z,94
2019-02-08T10:47:53.213Z,94
2019-02-08T10:48:55.333Z,94
2019-02-08T10:49:57.825Z,94
2019-02-08T10:51:00.327Z,93
2019-02-08T10:52:02.435Z,93
2019-02-08T10:53:04.563Z,93
2019-02-08T10:54:06.683Z,94
2019-02-08T10:55:08.804Z,94
2019-02-08T10:56:16.094Z,94
2019-02-08T10:57:18.495Z,94
2019-02-08T10:58:20.623Z,94
2019-02-08T10:59:22.742Z,94
2019-02-08T11:00:24.843Z,94
2019-02-08T11:01:27.637Z,94
2019-02-08T11:02:29.758Z,94
2019-02-08T11:03:31.883Z,94
2019-02-08T11:04:34.005Z,94
2019-02-08T11:05:36.124Z,94
2019-02-08T11:06:38.271Z,94
2019-02-08T11:07:40.403Z,93
2019-02-08T11:08:42.549Z,93
2019-02-08T11:09:44.655Z,93
2019-02-08T11:10:46.778Z,93
2019-02-08T11:11:48.901Z,93
2019-02-08T11:12:50.999Z,93
2019-02-08T11:13:53.122Z,93
2019-02-08T11:14:55.230Z,93
2019-02-08T11:15:57.339Z,93
2019-02-08T11:16:59.448Z,93
2019-02-08T11:18:01.601Z,93
2019-02-08T11:19:04.273Z,93
2019-02-08T11:20:06.390Z,94
2019-02-08T11:21:08.522Z,94
2019-02-08T11:22:10.630Z,94
2019-02-08T11:23:12.781Z,94
2019-02-08T11:24:14.902Z,94
2019-02-08T11:25:17.023Z,93
2019-02-08T11:26:25.293Z,93
2019-02-08T11:27:27.829Z,93
2019-02-08T11:28:29.948Z,93
2019-02-08T11:29:32.457Z,92
2019-02-08T11:30:34.557Z,93
2019-02-08T11:31:36.677Z,93
2019-02-08T11:32:44.822Z,93
2019-02-08T11:33:47.322Z,93
2019-02-08T11:34:49.446Z,93
2019-02-08T11:35:51.589Z,93
2019-02-08T11:36:53.809Z,93
2019-02-08T11:37:56.311Z,93
2019-02-08T11:38:58.444Z,93
2019-02-08T11:40:00.640Z,92
2019-02-08T11:41:02.766Z,92
2019-02-08T11:42:04.946Z,93
2019-02-08T11:43:07.052Z,92
2019-02-08T11:44:09.174Z,93
2019-02-08T11:45:11.576Z,93
2019-02-08T11:46:13.680Z,92
2019-02-08T11:47:15.810Z,92
2019-02-08T11:48:17.917Z,92
2019-02-08T11:49:20.039Z,93
2019-02-08T11:50:22.153Z,92
2019-02-08T11:51:24.309Z,92
2019-02-08T11:52:26.697Z,93
2019-02-08T11:53:28.829Z,92
2019-02-08T11:54:30.963Z,91
2019-02-08T11:55:33.064Z,91
2019-02-08T11:56:35.200Z,92
2019-02-08T11:57:37.314Z,91
2019-02-08T11:58:39.740Z,91
2019-02-08T11:59:42.157Z,92
2019-02-08T12:00:44.287Z,91
2019-02-08T12:01:46.787Z,91
2019-02-08T12:02:48.905Z,90
2019-02-08T12:03:51.317Z,90
2019-02-08T12:04:53.423Z,90
2019-02-08T12:05:55.547Z,90
2019-02-08T12:06:57.680Z,90
2019-02-08T12:08:00.076Z,89
2019-02-08T12:09:02.185Z,90
2019-02-08T12:10:04.615Z,90
2019-02-08T12:11:06.733Z,89
2019-02-08T12:12:08.863Z,89
2019-02-08T12:13:10.993Z,89
2019-02-08T12:14:13.126Z,89
2019-02-08T12:15:15.236Z,89
2019-02-08T12:16:17.656Z,89
2019-02-08T12:17:19.822Z,89
2019-02-08T12:18:21.940Z,88
2019-02-08T12:19:24.063Z,89
2019-02-08T12:20:26.167Z,88
2019-02-08T12:21:28.290Z,88
2019-02-08T12:22:30.794Z,88
2019-02-08T12:23:33.594Z,88
2019-02-08T12:24:35.973Z,88
2019-02-08T12:25:38.105Z,89
2019-02-08T12:26:40.621Z,88
2019-02-08T12:27:42.727Z,88
2019-02-08T12:28:44.864Z,88
2019-02-08T12:29:46.985Z,88
2019-02-08T12:30:49.098Z,88
2019-02-08T12:31:51.219Z,87
2019-02-08T12:32:53.358Z,87
2019-02-08T12:33:55.473Z,87
2019-02-08T12:34:57.595Z,88
2019-02-08T12:36:00.396Z,87
2019-02-08T12:37:02.498Z,87
2019-02-08T12:38:04.634Z,88
2019-02-08T12:39:06.763Z,87
2019-02-08T12:40:08.871Z,87
2019-02-08T12:41:12.867Z,87
2019-02-08T12:42:15.157Z,87
2019-02-08T12:43:17.283Z,87
2019-02-08T12:44:19.405Z,87
2019-02-08T12:45:21.524Z,87
2019-02-08T12:46:23.659Z,87
2019-02-08T12:47:25.774Z,87
2019-02-08T12:48:27.892Z,87
2019-02-08T12:49:30.692Z,87
2019-02-08T12:50:33.081Z,87
2019-02-08T12:51:35.316Z,87
2019-02-08T12:52:37.781Z,88
2019-02-08T12:53:39.888Z,87
2019-02-08T12:54:42.320Z,88
2019-02-08T12:55:44.457Z,87
2019-02-08T12:56:47.060Z,87
2019-02-08T12:57:49.158Z,88
2019-02-08T12:58:51.289Z,88
2019-02-08T12:59:53.410Z,87
2019-02-08T13:00:55.529Z,88
2019-02-08T13:01:57.957Z,88
2019-02-08T13:03:00.078Z,88
2019-02-08T13:04:03.825Z,88
2019-02-08T13:05:05.939Z,88
2019-02-08T13:06:08.082Z,87
2019-02-08T13:07:11.308Z,88
2019-02-08T13:08:13.435Z,88
2019-02-08T13:09:15.853Z,89
2019-02-08T13:10:17.952Z,88
2019-02-08T13:11:20.083Z,88
2019-02-08T13:12:22.215Z,88
2019-02-08T13:13:24.336Z,87
2019-02-08T13:14:26.753Z,87
2019-02-08T13:15:28.905Z,87
2019-02-08T13:16:31.021Z,87
2019-02-08T13:17:33.152Z,87
2019-02-08T13:18:35.267Z,87
2019-02-08T13:19:37.770Z,87
2019-02-08T13:20:40.166Z,86
2019-02-08T13:21:42.278Z,86
2019-02-08T13:22:44.413Z,86
2019-02-08T13:23:46.524Z,86
2019-02-08T13:24:48.924Z,86
2019-02-08T13:25:51.351Z,86
2019-02-08T13:26:54.303Z,86
2019-02-08T13:27:56.806Z,87
2019-02-08T13:28:59.213Z,87
2019-02-08T13:30:01.346Z,86
2019-02-08T13:31:04.435Z,86
2019-02-08T13:32:06.562Z,86
2019-02-08T13:33:08.688Z,87
2019-02-08T13:34:10.805Z,86
2019-02-08T13:35:12.940Z,87
2019-02-08T13:36:15.045Z,86
2019-02-08T13:37:17.173Z,86
2019-02-08T13:38:19.297Z,86
2019-02-08T13:39:21.430Z,86
2019-02-08T13:40:23.534Z,86
2019-02-08T13:41:25.661Z,87
2019-02-08T13:42:27.781Z,87
2019-02-08T13:43:29.886Z,86
2019-02-08T13:44:32.024Z,86
2019-02-08T13:45:34.145Z,87
2019-02-08T13:46:36.259Z,87
2019-02-08T13:47:38.377Z,87
2019-02-08T13:48:40.789Z,87
2019-02-08T13:49:43.292Z,87
2019-02-08T13:50:45.422Z,86
2019-02-08T13:51:47.556Z,87
2019-02-08T13:52:49.683Z,87
2019-02-08T13:53:51.803Z,87
2019-02-08T13:54:53.934Z,87
2019-02-08T13:55:56.328Z,86
2019-02-08T13:57:02.319Z,87
2019-02-08T13:58:06.023Z,87
2019-02-08T13:59:08.335Z,86
2019-02-08T14:00:10.447Z,87
2019-02-08T14:01:12.568Z,87
2019-02-08T14:02:15.069Z,86
2019-02-08T14:03:17.200Z,86
2019-02-08T14:04:19.296Z,86
2019-02-08T14:05:21.715Z,86
2019-02-08T14:06:24.138Z,86
2019-02-08T14:07:26.289Z,85
2019-02-08T14:08:28.620Z,85
2019-02-08T14:09:30.731Z,85
2019-02-08T14:10:32.864Z,86
2019-02-08T14:11:34.982Z,86
2019-02-08T14:12:37.401Z,86
2019-02-08T14:13:42.008Z,86
2019-02-08T14:14:44.432Z,86
2019-02-08T14:15:46.558Z,86
2019-02-08T14:16:48.666Z,85
2019-02-08T14:17:50.795Z,85
2019-02-08T14:18:52.922Z,85
2019-02-08T14:19:55.037Z,86
2019-02-08T14:20:57.167Z,85
2019-02-08T14:21:59.871Z,85
2019-02-08T14:23:02.386Z,85
2019-02-08T14:24:04.519Z,85
2019-02-08T14:25:06.634Z,85
2019-02-08T14:26:08.798Z,85
2019-02-08T14:27:10.922Z,85
2019-02-08T14:28:13.045Z,85
2019-02-08T14:29:15.442Z,85
2019-02-08T14:30:17.856Z,86
2019-02-08T14:31:19.993Z,86
2019-02-08T14:32:22.110Z,86
2019-02-08T14:33:24.261Z,85
2019-02-08T14:34:26.375Z,86
2019-02-08T14:35:28.973Z,85